sensor_id;sensor_type;location;lat;lon;timestamp;P1;durP1;ratioP1;P2;durP2;ratioP2
49101;SDS011;34913;47.520;19.186;2023-06-10T00:00:47;5.95;;;4.50;;
49101;SDS011;34913;47.520;19.186;2023-06-10T00:03:12;7.25;;;4.63;;
49101;SDS011;34913;47.520;19.186;2023-06-10T00:05:38;6.75;;;4.80;;
49101;SDS011;34913;47.520;19.186;2023-06-10T00:08:04;5.03;;;4.50;;
49101;SDS011;34913;47.520;19.186;2023-06-10T00:10:32;5.82;;;5.22;;
49101;SDS011;34913;47.520;19.186;2023-06-10T00:13:00;5.57;;;5.07;;
49101;SDS011;34913;47.520;19.186;2023-06-10T00:15:26;5.78;;;4.93;;
49101;SDS011;34913;47.520;19.186;2023-06-10T00:17:52;5.53;;;4.95;;
49101;SDS011;34913;47.520;19.186;2023-06-10T00:20:20;7.00;;;4.55;;
49101;SDS011;34913;47.520;19.186;2023-06-10T00:22:48;5.93;;;4.60;;
49101;SDS011;34913;47.520;19.186;2023-06-10T00:25:14;5.80;;;4.50;;
49101;SDS011;34913;47.520;19.186;2023-06-10T00:27:39;6.85;;;4.72;;
49101;SDS011;34913;47.520;19.186;2023-06-10T00:30:05;6.05;;;4.63;;
49101;SDS011;34913;47.520;19.186;2023-06-10T00:32:32;5.20;;;4.43;;
49101;SDS011;34913;47.520;19.186;2023-06-10T00:34:58;8.73;;;4.80;;
49101;SDS011;34913;47.520;19.186;2023-06-10T00:37:23;6.60;;;4.40;;
49101;SDS011;34913;47.520;19.186;2023-06-10T00:39:49;4.97;;;4.50;;
49101;SDS011;34913;47.520;19.186;2023-06-10T00:42:14;5.38;;;4.88;;
49101;SDS011;34913;47.520;19.186;2023-06-10T00:44:39;6.07;;;4.80;;
49101;SDS011;34913;47.520;19.186;2023-06-10T00:47:05;7.50;;;4.75;;
49101;SDS011;34913;47.520;19.186;2023-06-10T00:49:31;5.50;;;5.00;;
49101;SDS011;34913;47.520;19.186;2023-06-10T00:51:57;5.05;;;4.60;;
49101;SDS011;34913;47.520;19.186;2023-06-10T00:54:23;5.00;;;4.50;;
49101;SDS011;34913;47.520;19.186;2023-06-10T00:56:48;6.90;;;4.85;;
49101;SDS011;34913;47.520;19.186;2023-06-10T00:59:14;5.53;;;4.60;;
49101;SDS011;34913;47.520;19.186;2023-06-10T01:01:41;7.63;;;4.95;;
49101;SDS011;34913;47.520;19.186;2023-06-10T01:04:08;5.70;;;4.97;;
49101;SDS011;34913;47.520;19.186;2023-06-10T01:09:39;5.40;;;4.75;;
49101;SDS011;34913;47.520;19.186;2023-06-10T01:14:40;7.25;;;5.03;;
49101;SDS011;34913;47.520;19.186;2023-06-10T01:17:10;6.78;;;4.72;;
49101;SDS011;34913;47.520;19.186;2023-06-10T01:19:36;5.90;;;4.80;;
49101;SDS011;34913;47.520;19.186;2023-06-10T01:22:02;6.80;;;5.05;;
49101;SDS011;34913;47.520;19.186;2023-06-10T01:24:28;5.40;;;4.90;;
49101;SDS011;34913;47.520;19.186;2023-06-10T01:26:57;5.90;;;5.30;;
49101;SDS011;34913;47.520;19.186;2023-06-10T01:29:30;6.47;;;5.78;;
49101;SDS011;34913;47.520;19.186;2023-06-10T01:34:42;8.95;;;5.70;;
49101;SDS011;34913;47.520;19.186;2023-06-10T01:37:09;8.18;;;5.50;;
49101;SDS011;34913;47.520;19.186;2023-06-10T01:39:36;7.57;;;5.63;;
49101;SDS011;34913;47.520;19.186;2023-06-10T01:42:03;8.55;;;5.35;;
49101;SDS011;34913;47.520;19.186;2023-06-10T01:44:31;7.63;;;5.50;;
49101;SDS011;34913;47.520;19.186;2023-06-10T01:46:57;9.18;;;5.88;;
49101;SDS011;34913;47.520;19.186;2023-06-10T01:49:22;8.48;;;6.45;;
49101;SDS011;34913;47.520;19.186;2023-06-10T01:51:49;11.32;;;6.43;;
49101;SDS011;34913;47.520;19.186;2023-06-10T01:54:14;7.38;;;6.22;;
49101;SDS011;34913;47.520;19.186;2023-06-10T01:56:40;7.55;;;6.15;;
49101;SDS011;34913;47.520;19.186;2023-06-10T01:59:05;8.43;;;6.07;;
49101;SDS011;34913;47.520;19.186;2023-06-10T02:01:30;10.98;;;6.00;;
49101;SDS011;34913;47.520;19.186;2023-06-10T02:03:56;9.48;;;5.70;;
49101;SDS011;34913;47.520;19.186;2023-06-10T02:06:21;7.00;;;5.53;;
49101;SDS011;34913;47.520;19.186;2023-06-10T02:08:47;7.13;;;5.65;;
49101;SDS011;34913;47.520;19.186;2023-06-10T02:11:12;8.25;;;5.88;;
49101;SDS011;34913;47.520;19.186;2023-06-10T02:13:38;7.72;;;5.60;;
49101;SDS011;34913;47.520;19.186;2023-06-10T02:16:04;5.68;;;5.05;;
49101;SDS011;34913;47.520;19.186;2023-06-10T02:18:30;7.20;;;6.30;;
49101;SDS011;34913;47.520;19.186;2023-06-10T02:20:56;6.40;;;5.78;;
49101;SDS011;34913;47.520;19.186;2023-06-10T02:23:22;9.68;;;6.20;;
49101;SDS011;34913;47.520;19.186;2023-06-10T02:25:47;6.55;;;5.88;;
49101;SDS011;34913;47.520;19.186;2023-06-10T02:28:14;8.23;;;5.95;;
49101;SDS011;34913;47.520;19.186;2023-06-10T02:30:41;7.68;;;5.50;;
49101;SDS011;34913;47.520;19.186;2023-06-10T02:33:06;7.22;;;5.60;;
49101;SDS011;34913;47.520;19.186;2023-06-10T02:35:35;7.22;;;5.70;;
49101;SDS011;34913;47.520;19.186;2023-06-10T02:38:04;6.22;;;5.63;;
49101;SDS011;34913;47.520;19.186;2023-06-10T02:40:30;8.25;;;5.88;;
49101;SDS011;34913;47.520;19.186;2023-06-10T02:42:55;7.45;;;6.07;;
49101;SDS011;34913;47.520;19.186;2023-06-10T02:45:20;7.00;;;6.00;;
49101;SDS011;34913;47.520;19.186;2023-06-10T02:47:46;7.07;;;5.88;;
49101;SDS011;34913;47.520;19.186;2023-06-10T02:50:11;9.52;;;5.93;;
49101;SDS011;34913;47.520;19.186;2023-06-10T02:52:37;9.65;;;5.60;;
49101;SDS011;34913;47.520;19.186;2023-06-10T02:55:02;6.53;;;5.90;;
49101;SDS011;34913;47.520;19.186;2023-06-10T02:57:28;6.43;;;5.35;;
49101;SDS011;34913;47.520;19.186;2023-06-10T02:59:53;7.88;;;5.85;;
49101;SDS011;34913;47.520;19.186;2023-06-10T03:02:19;8.60;;;6.07;;
49101;SDS011;34913;47.520;19.186;2023-06-10T03:04:45;10.63;;;6.38;;
49101;SDS011;34913;47.520;19.186;2023-06-10T03:07:10;7.93;;;6.30;;
49101;SDS011;34913;47.520;19.186;2023-06-10T03:09:36;9.95;;;6.68;;
49101;SDS011;34913;47.520;19.186;2023-06-10T03:12:01;8.13;;;6.20;;
49101;SDS011;34913;47.520;19.186;2023-06-10T03:14:27;9.38;;;6.38;;
49101;SDS011;34913;47.520;19.186;2023-06-10T03:16:53;8.88;;;6.40;;
49101;SDS011;34913;47.520;19.186;2023-06-10T03:19:18;8.32;;;6.75;;
49101;SDS011;34913;47.520;19.186;2023-06-10T03:21:49;8.63;;;6.80;;
49101;SDS011;34913;47.520;19.186;2023-06-10T03:24:19;7.25;;;6.55;;
49101;SDS011;34913;47.520;19.186;2023-06-10T03:26:45;8.00;;;6.80;;
49101;SDS011;34913;47.520;19.186;2023-06-10T03:29:11;8.27;;;6.65;;
49101;SDS011;34913;47.520;19.186;2023-06-10T03:31:36;11.65;;;6.43;;
49101;SDS011;34913;47.520;19.186;2023-06-10T03:34:02;9.00;;;7.18;;
49101;SDS011;34913;47.520;19.186;2023-06-10T03:36:27;7.25;;;6.55;;
49101;SDS011;34913;47.520;19.186;2023-06-10T03:38:54;8.90;;;6.35;;
49101;SDS011;34913;47.520;19.186;2023-06-10T03:41:21;10.80;;;6.50;;
49101;SDS011;34913;47.520;19.186;2023-06-10T03:43:47;8.98;;;6.32;;
49101;SDS011;34913;47.520;19.186;2023-06-10T03:46:13;10.07;;;6.65;;
49101;SDS011;34913;47.520;19.186;2023-06-10T03:48:38;10.43;;;6.65;;
49101;SDS011;34913;47.520;19.186;2023-06-10T03:51:04;9.02;;;6.40;;
49101;SDS011;34913;47.520;19.186;2023-06-10T03:53:30;7.85;;;6.80;;
49101;SDS011;34913;47.520;19.186;2023-06-10T03:55:55;10.48;;;7.22;;
49101;SDS011;34913;47.520;19.186;2023-06-10T03:58:22;10.23;;;7.18;;
49101;SDS011;34913;47.520;19.186;2023-06-10T04:00:47;8.88;;;6.72;;
49101;SDS011;34913;47.520;19.186;2023-06-10T04:03:14;7.38;;;6.22;;
49101;SDS011;34913;47.520;19.186;2023-06-10T04:05:40;10.23;;;7.30;;
49101;SDS011;34913;47.520;19.186;2023-06-10T04:08:09;9.82;;;6.93;;
49101;SDS011;34913;47.520;19.186;2023-06-10T04:10:34;8.25;;;6.95;;
49101;SDS011;34913;47.520;19.186;2023-06-10T04:13:00;11.57;;;6.60;;
49101;SDS011;34913;47.520;19.186;2023-06-10T04:15:26;8.10;;;6.70;;
49101;SDS011;34913;47.520;19.186;2023-06-10T04:17:51;9.98;;;7.32;;
49101;SDS011;34913;47.520;19.186;2023-06-10T04:20:17;10.68;;;6.80;;
49101;SDS011;34913;47.520;19.186;2023-06-10T04:22:43;8.18;;;6.40;;
49101;SDS011;34913;47.520;19.186;2023-06-10T04:25:09;8.25;;;6.38;;
49101;SDS011;34913;47.520;19.186;2023-06-10T04:27:35;8.55;;;5.45;;
49101;SDS011;34913;47.520;19.186;2023-06-10T04:30:01;9.13;;;5.68;;
49101;SDS011;34913;47.520;19.186;2023-06-10T04:32:27;9.82;;;6.00;;
49101;SDS011;34913;47.520;19.186;2023-06-10T04:34:52;6.78;;;5.72;;
49101;SDS011;34913;47.520;19.186;2023-06-10T04:37:18;8.15;;;5.90;;
49101;SDS011;34913;47.520;19.186;2023-06-10T04:39:43;8.00;;;5.78;;
49101;SDS011;34913;47.520;19.186;2023-06-10T04:42:09;8.27;;;5.80;;
49101;SDS011;34913;47.520;19.186;2023-06-10T04:44:34;6.60;;;5.43;;
49101;SDS011;34913;47.520;19.186;2023-06-10T04:46:59;6.35;;;5.20;;
49101;SDS011;34913;47.520;19.186;2023-06-10T04:49:25;6.88;;;6.15;;
49101;SDS011;34913;47.520;19.186;2023-06-10T04:51:51;6.95;;;5.40;;
49101;SDS011;34913;47.520;19.186;2023-06-10T04:54:16;10.32;;;5.18;;
49101;SDS011;34913;47.520;19.186;2023-06-10T04:56:42;6.72;;;4.97;;
49101;SDS011;34913;47.520;19.186;2023-06-10T04:59:07;9.27;;;5.00;;
49101;SDS011;34913;47.520;19.186;2023-06-10T05:01:32;7.05;;;5.22;;
49101;SDS011;34913;47.520;19.186;2023-06-10T05:03:58;6.22;;;4.97;;
49101;SDS011;34913;47.520;19.186;2023-06-10T05:06:23;6.68;;;4.95;;
49101;SDS011;34913;47.520;19.186;2023-06-10T05:08:49;8.48;;;5.03;;
49101;SDS011;34913;47.520;19.186;2023-06-10T05:11:14;6.05;;;5.45;;
49101;SDS011;34913;47.520;19.186;2023-06-10T05:13:41;5.90;;;4.55;;
49101;SDS011;34913;47.520;19.186;2023-06-10T05:16:07;5.72;;;4.90;;
49101;SDS011;34913;47.520;19.186;2023-06-10T05:18:34;6.05;;;4.47;;
49101;SDS011;34913;47.520;19.186;2023-06-10T05:21:00;5.00;;;4.50;;
49101;SDS011;34913;47.520;19.186;2023-06-10T05:23:27;7.57;;;4.60;;
49101;SDS011;34913;47.520;19.186;2023-06-10T05:25:52;5.68;;;4.13;;
49101;SDS011;34913;47.520;19.186;2023-06-10T05:28:18;5.53;;;4.53;;
49101;SDS011;34913;47.520;19.186;2023-06-10T05:30:43;6.55;;;4.50;;
49101;SDS011;34913;47.520;19.186;2023-06-10T05:33:09;5.28;;;4.40;;
49101;SDS011;34913;47.520;19.186;2023-06-10T05:35:34;4.53;;;4.07;;
49101;SDS011;34913;47.520;19.186;2023-06-10T05:38:00;4.93;;;4.18;;
49101;SDS011;34913;47.520;19.186;2023-06-10T05:40:25;5.10;;;4.18;;
49101;SDS011;34913;47.520;19.186;2023-06-10T05:42:50;5.50;;;3.83;;
49101;SDS011;34913;47.520;19.186;2023-06-10T05:45:16;6.50;;;4.10;;
49101;SDS011;34913;47.520;19.186;2023-06-10T05:47:41;5.13;;;3.92;;
49101;SDS011;34913;47.520;19.186;2023-06-10T05:50:07;4.90;;;4.50;;
49101;SDS011;34913;47.520;19.186;2023-06-10T05:52:34;5.32;;;4.45;;
49101;SDS011;34913;47.520;19.186;2023-06-10T05:55:00;4.80;;;4.30;;
49101;SDS011;34913;47.520;19.186;2023-06-10T05:57:25;5.78;;;4.32;;
49101;SDS011;34913;47.520;19.186;2023-06-10T05:59:51;4.85;;;4.35;;
49101;SDS011;34913;47.520;19.186;2023-06-10T06:02:16;5.75;;;4.28;;
49101;SDS011;34913;47.520;19.186;2023-06-10T06:04:42;5.00;;;4.50;;
49101;SDS011;34913;47.520;19.186;2023-06-10T06:07:07;6.25;;;4.57;;
49101;SDS011;34913;47.520;19.186;2023-06-10T06:09:32;4.93;;;4.43;;
49101;SDS011;34913;47.520;19.186;2023-06-10T06:11:58;5.47;;;4.20;;
49101;SDS011;34913;47.520;19.186;2023-06-10T06:14:23;4.70;;;4.10;;
49101;SDS011;34913;47.520;19.186;2023-06-10T06:16:49;5.63;;;4.95;;
49101;SDS011;34913;47.520;19.186;2023-06-10T06:19:14;5.13;;;4.53;;
49101;SDS011;34913;47.520;19.186;2023-06-10T06:21:40;6.85;;;4.47;;
49101;SDS011;34913;47.520;19.186;2023-06-10T06:24:06;4.78;;;4.32;;
49101;SDS011;34913;47.520;19.186;2023-06-10T06:26:32;5.82;;;4.20;;
49101;SDS011;34913;47.520;19.186;2023-06-10T06:28:57;5.93;;;4.18;;
49101;SDS011;34913;47.520;19.186;2023-06-10T06:31:22;5.03;;;4.40;;
49101;SDS011;34913;47.520;19.186;2023-06-10T06:33:48;5.70;;;4.50;;
49101;SDS011;34913;47.520;19.186;2023-06-10T06:36:13;6.40;;;4.55;;
49101;SDS011;34913;47.520;19.186;2023-06-10T06:38:39;3.95;;;3.65;;
49101;SDS011;34913;47.520;19.186;2023-06-10T06:41:04;5.30;;;4.80;;
49101;SDS011;34913;47.520;19.186;2023-06-10T06:43:31;5.15;;;4.38;;
49101;SDS011;34913;47.520;19.186;2023-06-10T06:45:57;5.82;;;4.38;;
49101;SDS011;34913;47.520;19.186;2023-06-10T06:48:23;6.80;;;4.70;;
49101;SDS011;34913;47.520;19.186;2023-06-10T06:50:49;6.20;;;4.70;;
49101;SDS011;34913;47.520;19.186;2023-06-10T06:53:14;5.90;;;4.47;;
49101;SDS011;34913;47.520;19.186;2023-06-10T06:55:40;5.50;;;5.00;;
49101;SDS011;34913;47.520;19.186;2023-06-10T06:58:05;6.22;;;4.60;;
49101;SDS011;34913;47.520;19.186;2023-06-10T07:00:31;5.55;;;5.00;;
49101;SDS011;34913;47.520;19.186;2023-06-10T07:02:57;7.43;;;4.95;;
49101;SDS011;34913;47.520;19.186;2023-06-10T07:05:23;6.60;;;5.57;;
49101;SDS011;34913;47.520;19.186;2023-06-10T07:07:52;6.88;;;6.18;;
49101;SDS011;34913;47.520;19.186;2023-06-10T07:10:23;6.40;;;5.80;;
49101;SDS011;34913;47.520;19.186;2023-06-10T07:12:51;6.47;;;5.82;;
49101;SDS011;34913;47.520;19.186;2023-06-10T07:15:17;8.52;;;6.00;;
49101;SDS011;34913;47.520;19.186;2023-06-10T07:17:43;6.80;;;5.90;;
49101;SDS011;34913;47.520;19.186;2023-06-10T07:20:08;6.80;;;5.60;;
49101;SDS011;34913;47.520;19.186;2023-06-10T07:22:34;7.43;;;5.68;;
49101;SDS011;34913;47.520;19.186;2023-06-10T07:25:00;6.88;;;5.95;;
49101;SDS011;34913;47.520;19.186;2023-06-10T07:27:25;7.78;;;5.88;;
49101;SDS011;34913;47.520;19.186;2023-06-10T07:29:51;6.85;;;6.20;;
49101;SDS011;34913;47.520;19.186;2023-06-10T07:32:16;6.88;;;6.18;;
49101;SDS011;34913;47.520;19.186;2023-06-10T07:34:42;8.45;;;6.38;;
49101;SDS011;34913;47.520;19.186;2023-06-10T07:37:07;8.07;;;7.20;;
49101;SDS011;34913;47.520;19.186;2023-06-10T07:39:33;8.57;;;6.72;;
49101;SDS011;34913;47.520;19.186;2023-06-10T07:41:59;9.52;;;6.18;;
49101;SDS011;34913;47.520;19.186;2023-06-10T07:44:25;7.18;;;6.47;;
49101;SDS011;34913;47.520;19.186;2023-06-10T07:46:50;7.07;;;6.38;;
49101;SDS011;34913;47.520;19.186;2023-06-10T07:49:16;6.85;;;5.85;;
49101;SDS011;34913;47.520;19.186;2023-06-10T07:51:41;7.38;;;6.68;;
49101;SDS011;34913;47.520;19.186;2023-06-10T07:54:07;8.52;;;6.40;;
49101;SDS011;34913;47.520;19.186;2023-06-10T07:56:32;7.97;;;6.30;;
49101;SDS011;34913;47.520;19.186;2023-06-10T07:58:58;7.85;;;6.13;;
49101;SDS011;34913;47.520;19.186;2023-06-10T08:01:23;7.18;;;6.28;;
49101;SDS011;34913;47.520;19.186;2023-06-10T08:03:49;7.70;;;7.00;;
49101;SDS011;34913;47.520;19.186;2023-06-10T08:06:15;8.88;;;7.97;;
49101;SDS011;34913;47.520;19.186;2023-06-10T08:08:42;9.50;;;8.48;;
49101;SDS011;34913;47.520;19.186;2023-06-10T08:11:09;8.15;;;7.35;;
49101;SDS011;34913;47.520;19.186;2023-06-10T08:13:37;9.25;;;8.35;;
49101;SDS011;34913;47.520;19.186;2023-06-10T08:16:03;9.32;;;8.25;;
49101;SDS011;34913;47.520;19.186;2023-06-10T08:18:29;10.02;;;8.98;;
49101;SDS011;34913;47.520;19.186;2023-06-10T08:20:54;11.40;;;9.45;;
49101;SDS011;34913;47.520;19.186;2023-06-10T08:23:20;12.07;;;9.20;;
49101;SDS011;34913;47.520;19.186;2023-06-10T08:25:45;8.50;;;7.60;;
49101;SDS011;34913;47.520;19.186;2023-06-10T08:28:11;9.65;;;8.43;;
49101;SDS011;34913;47.520;19.186;2023-06-10T08:30:36;8.13;;;7.32;;
49101;SDS011;34913;47.520;19.186;2023-06-10T08:33:02;9.18;;;7.93;;
49101;SDS011;34913;47.520;19.186;2023-06-10T08:35:27;10.63;;;8.85;;
49101;SDS011;34913;47.520;19.186;2023-06-10T08:37:53;9.63;;;8.50;;
49101;SDS011;34913;47.520;19.186;2023-06-10T08:40:18;13.05;;;9.55;;
49101;SDS011;34913;47.520;19.186;2023-06-10T08:43:06;9.48;;;8.57;;
49101;SDS011;34913;47.520;19.186;2023-06-10T08:45:36;11.23;;;9.07;;
49101;SDS011;34913;47.520;19.186;2023-06-10T08:48:05;10.30;;;9.30;;
49101;SDS011;34913;47.520;19.186;2023-06-10T08:50:34;9.52;;;8.45;;
49101;SDS011;34913;47.520;19.186;2023-06-10T08:53:01;11.30;;;9.88;;
49101;SDS011;34913;47.520;19.186;2023-06-10T08:57:54;10.35;;;9.00;;
49101;SDS011;34913;47.520;19.186;2023-06-10T09:00:20;8.77;;;7.97;;
49101;SDS011;34913;47.520;19.186;2023-06-10T09:02:47;9.57;;;8.68;;
49101;SDS011;34913;47.520;19.186;2023-06-10T09:05:13;11.30;;;10.25;;
49101;SDS011;34913;47.520;19.186;2023-06-10T09:07:38;10.13;;;8.95;;
49101;SDS011;34913;47.520;19.186;2023-06-10T09:10:04;9.95;;;8.73;;
49101;SDS011;34913;47.520;19.186;2023-06-10T09:12:32;11.88;;;10.63;;
49101;SDS011;34913;47.520;19.186;2023-06-10T09:14:59;12.20;;;10.90;;
49101;SDS011;34913;47.520;19.186;2023-06-10T09:17:25;11.13;;;10.02;;
49101;SDS011;34913;47.520;19.186;2023-06-10T09:19:51;12.38;;;11.02;;
49101;SDS011;34913;47.520;19.186;2023-06-10T09:22:18;12.95;;;11.55;;
49101;SDS011;34913;47.520;19.186;2023-06-10T09:24:44;16.52;;;12.75;;
49101;SDS011;34913;47.520;19.186;2023-06-10T09:27:11;13.60;;;11.98;;
49101;SDS011;34913;47.520;19.186;2023-06-10T09:29:46;13.75;;;12.30;;
49101;SDS011;34913;47.520;19.186;2023-06-10T09:32:17;12.70;;;11.50;;
49101;SDS011;34913;47.520;19.186;2023-06-10T09:34:43;13.90;;;12.20;;
49101;SDS011;34913;47.520;19.186;2023-06-10T09:37:09;13.68;;;12.25;;
49101;SDS011;34913;47.520;19.186;2023-06-10T09:39:37;12.75;;;11.55;;
49101;SDS011;34913;47.520;19.186;2023-06-10T09:42:15;11.95;;;10.82;;
49101;SDS011;34913;47.520;19.186;2023-06-10T09:44:50;12.00;;;10.50;;
49101;SDS011;34913;47.520;19.186;2023-06-10T09:47:20;11.90;;;10.80;;
49101;SDS011;34913;47.520;19.186;2023-06-10T09:49:47;12.60;;;11.50;;
49101;SDS011;34913;47.520;19.186;2023-06-10T09:52:13;12.77;;;11.60;;
49101;SDS011;34913;47.520;19.186;2023-06-10T09:54:39;13.00;;;11.80;;
49101;SDS011;34913;47.520;19.186;2023-06-10T09:57:07;12.88;;;11.57;;
49101;SDS011;34913;47.520;19.186;2023-06-10T09:59:35;13.10;;;11.95;;
49101;SDS011;34913;47.520;19.186;2023-06-10T10:02:02;12.80;;;11.63;;
49101;SDS011;34913;47.520;19.186;2023-06-10T10:04:29;11.13;;;10.20;;
49101;SDS011;34913;47.520;19.186;2023-06-10T10:06:55;10.55;;;9.55;;
49101;SDS011;34913;47.520;19.186;2023-06-10T10:09:20;10.55;;;9.45;;
49101;SDS011;34913;47.520;19.186;2023-06-10T10:11:46;11.10;;;10.10;;
49101;SDS011;34913;47.520;19.186;2023-06-10T10:14:13;10.70;;;9.70;;
49101;SDS011;34913;47.520;19.186;2023-06-10T10:16:41;11.00;;;9.23;;
49101;SDS011;34913;47.520;19.186;2023-06-10T10:19:10;10.18;;;9.18;;
49101;SDS011;34913;47.520;19.186;2023-06-10T10:24:20;11.70;;;10.07;;
49101;SDS011;34913;47.520;19.186;2023-06-10T10:26:48;7.40;;;6.70;;
49101;SDS011;34913;47.520;19.186;2023-06-10T10:29:25;6.97;;;6.38;;
49101;SDS011;34913;47.520;19.186;2023-06-10T10:31:53;8.73;;;6.50;;
49101;SDS011;34913;47.520;19.186;2023-06-10T10:34:24;7.45;;;6.80;;
49101;SDS011;34913;47.520;19.186;2023-06-10T10:36:56;7.88;;;7.18;;
49101;SDS011;34913;47.520;19.186;2023-06-10T10:39:23;9.05;;;8.23;;
49101;SDS011;34913;47.520;19.186;2023-06-10T10:41:49;9.63;;;8.07;;
49101;SDS011;34913;47.520;19.186;2023-06-10T10:44:15;9.80;;;8.88;;
49101;SDS011;34913;47.520;19.186;2023-06-10T10:46:42;10.52;;;9.52;;
49101;SDS011;34913;47.520;19.186;2023-06-10T10:49:09;9.68;;;8.88;;
49101;SDS011;34913;47.520;19.186;2023-06-10T10:51:37;10.25;;;9.35;;
49101;SDS011;34913;47.520;19.186;2023-06-10T10:54:12;10.32;;;9.40;;
49101;SDS011;34913;47.520;19.186;2023-06-10T10:56:38;9.95;;;9.05;;
49101;SDS011;34913;47.520;19.186;2023-06-10T10:59:04;10.55;;;9.65;;
49101;SDS011;34913;47.520;19.186;2023-06-10T11:01:40;9.00;;;8.20;;
49101;SDS011;34913;47.520;19.186;2023-06-10T11:04:07;8.88;;;7.97;;
49101;SDS011;34913;47.520;19.186;2023-06-10T11:06:36;8.68;;;7.88;;
49101;SDS011;34913;47.520;19.186;2023-06-10T11:09:02;7.82;;;7.13;;
49101;SDS011;34913;47.520;19.186;2023-06-10T11:11:52;7.00;;;6.38;;
49101;SDS011;34913;47.520;19.186;2023-06-10T11:14:26;9.13;;;6.63;;
49101;SDS011;34913;47.520;19.186;2023-06-10T11:16:58;7.13;;;6.43;;
49101;SDS011;34913;47.520;19.186;2023-06-10T11:19:37;6.22;;;5.72;;
49101;SDS011;34913;47.520;19.186;2023-06-10T11:22:06;6.75;;;6.15;;
49101;SDS011;34913;47.520;19.186;2023-06-10T11:24:32;6.25;;;5.70;;
49101;SDS011;34913;47.520;19.186;2023-06-10T11:27:14;5.80;;;5.30;;
49101;SDS011;34913;47.520;19.186;2023-06-10T11:32:21;5.72;;;5.22;;
49101;SDS011;34913;47.520;19.186;2023-06-10T11:34:56;5.03;;;4.60;;
49101;SDS011;34913;47.520;19.186;2023-06-10T11:37:22;3.80;;;3.10;;
49101;SDS011;34913;47.520;19.186;2023-06-10T11:39:47;3.40;;;3.10;;
49101;SDS011;34913;47.520;19.186;2023-06-10T11:42:17;2.78;;;2.58;;
49101;SDS011;34913;47.520;19.186;2023-06-10T11:44:53;2.90;;;2.70;;
49101;SDS011;34913;47.520;19.186;2023-06-10T11:47:19;2.58;;;2.38;;
49101;SDS011;34913;47.520;19.186;2023-06-10T11:49:46;2.88;;;2.38;;
49101;SDS011;34913;47.520;19.186;2023-06-10T11:52:28;2.60;;;2.40;;
49101;SDS011;34913;47.520;19.186;2023-06-10T11:54:56;4.68;;;3.15;;
49101;SDS011;34913;47.520;19.186;2023-06-10T11:57:21;2.95;;;2.70;;
49101;SDS011;34913;47.520;19.186;2023-06-10T11:59:47;2.45;;;2.25;;
49101;SDS011;34913;47.520;19.186;2023-06-10T12:02:16;2.40;;;2.20;;
49101;SDS011;34913;47.520;19.186;2023-06-10T12:04:42;3.47;;;2.08;;
49101;SDS011;34913;47.520;19.186;2023-06-10T12:07:07;2.70;;;2.30;;
49101;SDS011;34913;47.520;19.186;2023-06-10T12:09:33;2.30;;;2.10;;
49101;SDS011;34913;47.520;19.186;2023-06-10T12:11:59;2.40;;;2.20;;
49101;SDS011;34913;47.520;19.186;2023-06-10T12:19:55;2.35;;;1.98;;
49101;SDS011;34913;47.520;19.186;2023-06-10T12:22:20;2.47;;;2.10;;
49101;SDS011;34913;47.520;19.186;2023-06-10T12:25:02;2.30;;;2.10;;
49101;SDS011;34913;47.520;19.186;2023-06-10T12:27:28;2.25;;;2.05;;
49101;SDS011;34913;47.520;19.186;2023-06-10T12:29:55;2.03;;;1.90;;
49101;SDS011;34913;47.520;19.186;2023-06-10T12:32:42;2.25;;;2.05;;
49101;SDS011;34913;47.520;19.186;2023-06-10T12:35:09;2.10;;;2.00;;
49101;SDS011;34913;47.520;19.186;2023-06-10T12:37:37;2.20;;;1.98;;
49101;SDS011;34913;47.520;19.186;2023-06-10T12:40:06;2.95;;;1.92;;
49101;SDS011;34913;47.520;19.186;2023-06-10T12:42:34;3.38;;;1.90;;
49101;SDS011;34913;47.520;19.186;2023-06-10T12:45:01;2.00;;;1.90;;
49101;SDS011;34913;47.520;19.186;2023-06-10T12:47:31;2.20;;;2.00;;
49101;SDS011;34913;47.520;19.186;2023-06-10T12:49:58;3.25;;;1.80;;
49101;SDS011;34913;47.520;19.186;2023-06-10T12:52:24;1.95;;;1.75;;
49101;SDS011;34913;47.520;19.186;2023-06-10T12:54:50;3.45;;;2.10;;
49101;SDS011;34913;47.520;19.186;2023-06-10T12:57:15;2.08;;;1.98;;
49101;SDS011;34913;47.520;19.186;2023-06-10T12:59:41;3.67;;;1.73;;
49101;SDS011;34913;47.520;19.186;2023-06-10T13:02:10;2.03;;;1.90;;
49101;SDS011;34913;47.520;19.186;2023-06-10T13:04:38;2.08;;;1.95;;
49101;SDS011;34913;47.520;19.186;2023-06-10T13:07:04;2.17;;;1.98;;
49101;SDS011;34913;47.520;19.186;2023-06-10T13:09:29;2.65;;;1.92;;
49101;SDS011;34913;47.520;19.186;2023-06-10T13:11:55;2.47;;;1.92;;
49101;SDS011;34913;47.520;19.186;2023-06-10T13:14:20;2.30;;;2.10;;
49101;SDS011;34913;47.520;19.186;2023-06-10T13:16:46;2.10;;;1.90;;
49101;SDS011;34913;47.520;19.186;2023-06-10T13:19:12;3.15;;;2.70;;
49101;SDS011;34913;47.520;19.186;2023-06-10T13:21:37;2.75;;;2.53;;
49101;SDS011;34913;47.520;19.186;2023-06-10T13:24:03;4.13;;;3.25;;
49101;SDS011;34913;47.520;19.186;2023-06-10T13:26:29;3.42;;;3.10;;
49101;SDS011;34913;47.520;19.186;2023-06-10T13:28:54;3.60;;;3.30;;
49101;SDS011;34913;47.520;19.186;2023-06-10T13:31:20;4.05;;;3.13;;
49101;SDS011;34913;47.520;19.186;2023-06-10T13:33:46;4.00;;;3.70;;
49101;SDS011;34913;47.520;19.186;2023-06-10T13:36:12;4.50;;;4.10;;
49101;SDS011;34913;47.520;19.186;2023-06-10T13:38:37;4.88;;;4.47;;
49101;SDS011;34913;47.520;19.186;2023-06-10T13:41:03;3.65;;;3.35;;
49101;SDS011;34913;47.520;19.186;2023-06-10T13:43:28;4.15;;;3.85;;
49101;SDS011;34913;47.520;19.186;2023-06-10T13:45:54;4.93;;;4.40;;
49101;SDS011;34913;47.520;19.186;2023-06-10T13:48:20;6.57;;;4.78;;
49101;SDS011;34913;47.520;19.186;2023-06-10T13:50:45;6.07;;;5.47;;
49101;SDS011;34913;47.520;19.186;2023-06-10T13:53:11;5.82;;;5.22;;
49101;SDS011;34913;47.520;19.186;2023-06-10T13:55:37;6.20;;;4.97;;
49101;SDS011;34913;47.520;19.186;2023-06-10T13:58:02;9.13;;;4.30;;
49101;SDS011;34913;47.520;19.186;2023-06-10T14:00:28;4.65;;;4.10;;
49101;SDS011;34913;47.520;19.186;2023-06-10T14:02:53;4.22;;;3.80;;
49101;SDS011;34913;47.520;19.186;2023-06-10T14:05:19;4.07;;;3.40;;
49101;SDS011;34913;47.520;19.186;2023-06-10T14:07:44;3.30;;;2.92;;
49101;SDS011;34913;47.520;19.186;2023-06-10T14:10:10;3.65;;;3.30;;
49101;SDS011;34913;47.520;19.186;2023-06-10T14:12:36;3.97;;;3.20;;
49101;SDS011;34913;47.520;19.186;2023-06-10T14:15:01;5.60;;;2.90;;
49101;SDS011;34913;47.520;19.186;2023-06-10T14:17:28;3.90;;;3.33;;
49101;SDS011;34913;47.520;19.186;2023-06-10T14:19:53;4.30;;;3.53;;
49101;SDS011;34913;47.520;19.186;2023-06-10T14:22:18;4.60;;;3.47;;
49101;SDS011;34913;47.520;19.186;2023-06-10T14:24:44;3.63;;;3.33;;
49101;SDS011;34913;47.520;19.186;2023-06-10T14:27:09;4.28;;;3.25;;
49101;SDS011;34913;47.520;19.186;2023-06-10T14:29:35;6.40;;;3.55;;
49101;SDS011;34913;47.520;19.186;2023-06-10T14:32:00;4.28;;;3.80;;
49101;SDS011;34913;47.520;19.186;2023-06-10T14:34:26;4.70;;;4.30;;
49101;SDS011;34913;47.520;19.186;2023-06-10T14:36:58;4.97;;;4.30;;
49101;SDS011;34913;47.520;19.186;2023-06-10T14:39:24;5.13;;;4.60;;
49101;SDS011;34913;47.520;19.186;2023-06-10T14:41:50;5.68;;;5.13;;
49101;SDS011;34913;47.520;19.186;2023-06-10T14:44:17;5.25;;;4.85;;
49101;SDS011;34913;47.520;19.186;2023-06-10T14:46:43;5.10;;;4.70;;
49101;SDS011;34913;47.520;19.186;2023-06-10T14:49:08;5.50;;;4.95;;